Time;durP1;ratioP1;P1;durP2;ratioP2;P2;SDS_P1;SDS_P2;PMS_P1;PMS_P2;Temp;Humidity;BMP_temperature;BMP_pressure;BME280_temperature;BME280_humidity;BME280_pressure;Samples;Min_cycle;Max_cycle;Signal;HPM_P1;HPM_P2
2022/11/03 00:02:18;;;;;;;2.15;0.90;;;20.50;83.60;;;;;;5915865;23;45183;-73
2022/11/03 00:06:03;;;;;;;1.35;0.57;;;20.50;83.40;;;;;;5949574;23;45288;-73
2022/11/03 00:07:50;;;;;;;2.50;0.70;;;20.50;83.20;;;;;;5941896;23;45358;-73
2022/11/03 00:10:28;;;;;;;3.25;0.70;;;20.50;83.10;;;;;;5947684;23;45658;-73
2022/11/03 00:12:55;;;;;;;1.67;0.80;;;20.50;82.80;;;;;;5921568;23;45320;-73
2022/11/03 00:15:22;;;;;;;2.20;0.70;;;20.50;82.90;;;;;;5923966;23;45420;-73
2022/11/03 00:17:48;;;;;;;2.00;0.77;;;20.50;83.00;;;;;;5933720;23;45431;-72
2022/11/03 00:20:26;;;;;;;1.75;0.60;;;20.50;82.90;;;;;;5947790;23;46581;-72
2022/11/03 00:22:56;;;;;;;3.28;0.85;;;20.50;82.90;;;;;;5930724;23;45380;-73
2022/11/03 00:25:27;;;;;;;2.60;0.82;;;20.50;83.90;;;;;;5944837;23;45844;-73
2022/11/03 00:28:11;;;;;;;1.63;0.70;;;20.50;82.70;;;;;;5942377;23;45331;-72
2022/11/03 00:30:59;;;;;;;2.88;0.80;;;20.50;82.60;;;;;;5928754;23;46530;-73
2022/11/03 00:33:46;;;;;;;2.78;1.20;;;20.40;83.40;;;;;;5921780;23;45389;-72
2022/11/03 00:36:16;;;;;;;2.22;0.70;;;20.50;82.20;;;;;;5923143;23;45079;-73
2022/11/03 00:38:43;;;;;;;2.85;0.80;;;20.40;82.30;;;;;;5931952;23;45396;-73
2022/11/03 00:41:15;;;;;;;1.40;0.77;;;20.50;82.60;;;;;;5937427;23;47366;-73
2022/11/03 00:47:10;;;;;;;2.63;0.70;;;20.50;82.50;;;;;;5911546;23;45481;-73
2022/11/03 00:49:46;;;;;;;2.17;1.08;;;20.40;82.60;;;;;;5946603;23;45139;-73
2022/11/03 00:52:14;;;;;;;2.25;0.77;;;20.40;82.70;;;;;;5930443;23;46581;-72
2022/11/03 00:54:59;;;;;;;2.42;0.88;;;20.40;82.30;;;;;;5962232;23;45524;-73
2022/11/03 00:57:38;;;;;;;2.33;0.85;;;20.40;82.20;;;;;;5940133;23;45296;-73
2022/11/03 01:00:15;;;;;;;1.48;0.73;;;20.40;82.10;;;;;;5953935;23;45471;-73
2022/11/03 01:02:42;;;;;;;1.77;0.70;;;20.50;82.20;;;;;;5928451;23;47532;-73
2022/11/03 01:08:06;;;;;;;3.10;0.70;;;20.40;81.80;;;;;;5928987;23;45418;-73
2022/11/03 01:13:40;;;;;;;1.85;0.70;;;20.50;82.00;;;;;;5935244;23;46261;-73
2022/11/03 01:16:18;;;;;;;1.10;0.60;;;20.50;82.00;;;;;;5962980;23;45369;-73
2022/11/03 01:18:58;;;;;;;1.65;0.60;;;20.40;81.80;;;;;;5934526;23;45386;-73
2022/11/03 01:21:25;;;;;;;2.17;0.82;;;20.50;81.90;;;;;;5939976;23;45379;-73
2022/11/03 01:23:54;;;;;;;1.85;0.77;;;20.50;81.60;;;;;;5938950;23;47615;-73
2022/11/03 01:26:22;;;;;;;3.20;0.70;;;20.50;81.70;;;;;;5943653;23;45186;-72
2022/11/03 01:29:00;;;;;;;1.63;0.77;;;20.40;81.70;;;;;;5934096;23;45467;-72
2022/11/03 01:31:38;;;;;;;2.67;0.85;;;20.40;81.90;;;;;;5961993;23;45357;-72
2022/11/03 01:34:30;;;;;;;2.22;0.60;;;20.40;82.10;;;;;;5919251;23;46297;-72
2022/11/03 01:37:01;;;;;;;1.50;0.80;;;20.40;81.90;;;;;;5943259;23;45287;-73
2022/11/03 01:39:56;;;;;;;2.10;0.70;;;20.40;81.90;;;;;;5957174;23;45421;-72
2022/11/03 01:42:32;;;;;;;2.20;0.73;;;20.40;82.10;;;;;;5932017;23;45363;-73
2022/11/03 01:45:11;;;;;;;1.25;0.50;;;20.40;82.30;;;;;;5944823;23;46495;-72
2022/11/03 01:47:39;;;;;;;3.28;0.82;;;20.40;81.70;;;;;;5992969;23;45205;-73
2022/11/03 01:50:18;;;;;;;0.85;0.68;;;20.40;81.60;;;;;;5951448;23;45496;-72
2022/11/03 01:53:04;;;;;;;1.10;0.63;;;20.40;81.70;;;;;;5925582;23;45418;-72
2022/11/03 01:56:05;;;;;;;2.13;0.60;;;20.50;81.50;;;;;;5930091;23;45780;-72
2022/11/03 01:58:48;;;;;;;2.35;0.80;;;20.40;81.50;;;;;;5915913;23;45400;-73
2022/11/03 02:01:50;;;;;;;1.50;0.68;;;20.40;81.50;;;;;;5967156;23;45459;-72
2022/11/03 02:04:34;;;;;;;3.45;0.88;;;20.50;81.50;;;;;;5919778;23;45397;-73
2022/11/03 02:07:31;;;;;;;1.33;0.80;;;20.50;81.50;;;;;;5928269;23;46606;-73
2022/11/03 02:10:14;;;;;;;2.63;0.82;;;20.50;81.40;;;;;;5959462;23;45222;-72
2022/11/03 02:12:53;;;;;;;1.90;0.73;;;20.50;81.50;;;;;;5916526;23;45237;-72
2022/11/03 02:15:40;;;;;;;1.40;0.65;;;20.40;81.40;;;;;;5961847;23;45341;-73
2022/11/03 02:18:20;;;;;;;3.38;0.90;;;20.40;81.50;;;;;;5940928;23;47447;-72
2022/11/03 02:21:05;;;;;;;0.95;0.60;;;20.40;81.40;;;;;;5955295;23;45224;-73
2022/11/03 02:23:58;;;;;;;1.50;0.60;;;20.40;81.40;;;;;;5944248;23;45675;-72
2022/11/03 02:26:53;;;;;;;1.27;0.70;;;20.40;81.50;;;;;;5938849;23;45183;-73
2022/11/03 02:29:58;;;;;;;1.38;0.63;;;20.40;81.60;;;;;;5898300;23;45552;-72
2022/11/03 02:32:39;;;;;;;1.65;0.75;;;20.40;81.40;;;;;;5920777;23;45404;-72
2022/11/03 02:38:28;;;;;;;0.90;0.52;;;20.40;81.80;;;;;;5943331;23;46153;-72
2022/11/03 02:41:39;;;;;;;3.55;0.88;;;20.40;81.50;;;;;;5953740;23;47567;-73
2022/11/03 02:44:19;;;;;;;2.28;0.90;;;20.40;81.30;;;;;;5928034;23;45334;-73
2022/11/03 02:49:53;;;;;;;2.97;0.82;;;20.40;81.30;;;;;;5937800;23;45398;-72
2022/11/03 02:53:12;;;;;;;1.55;0.60;;;20.40;81.20;;;;;;5929267;23;47772;-73
2022/11/03 02:56:12;;;;;;;2.13;0.75;;;20.50;81.20;;;;;;5959112;23;45263;-72
2022/11/03 02:59:10;;;;;;;2.42;0.80;;;20.50;81.30;;;;;;5930066;23;45317;-72
2022/11/03 03:01:53;;;;;;;2.10;0.75;;;20.50;81.30;;;;;;5932592;23;45427;-75
2022/11/03 03:04:48;;;;;;;1.75;0.68;;;20.40;80.90;;;;;;5936379;23;47562;-73
2022/11/03 03:07:27;;;;;;;3.72;0.88;;;20.40;81.10;;;;;;5919560;23;45390;-72
2022/11/03 03:10:17;;;;;;;0.82;0.63;;;20.40;80.90;;;;;;5978269;23;45166;-73
2022/11/03 03:12:55;;;;;;;1.33;0.43;;;20.40;80.90;;;;;;5949913;23;45368;-73
2022/11/03 03:16:02;;;;;;;1.30;0.80;;;20.40;81.20;;;;;;5920446;23;47754;-73
2022/11/03 03:18:54;;;;;;;3.00;0.80;;;20.40;81.20;;;;;;5938666;23;45264;-73
2022/11/03 03:25:00;;;;;;;2.78;0.70;;;20.40;81.40;;;;;;5921215;23;45457;-72
2022/11/03 03:28:06;;;;;;;1.60;0.70;;;20.40;81.20;;;;;;5931951;23;46370;-73
2022/11/03 03:30:38;;;;;;;2.35;0.90;;;20.40;81.40;;;;;;5942761;23;45491;-73
2022/11/03 03:33:21;;;;;;;2.33;0.68;;;20.40;81.00;;;;;;5940723;23;45442;-72
2022/11/03 03:36:02;;;;;;;2.13;0.70;;;20.40;81.10;;;;;;5956721;23;45058;-72
2022/11/03 03:38:44;;;;;;;3.30;0.60;;;20.40;81.10;;;;;;5939642;23;46713;-72
2022/11/03 03:41:31;;;;;;;1.98;0.75;;;20.40;81.00;;;;;;5936699;23;45366;-73
2022/11/03 03:44:13;;;;;;;2.00;0.80;;;20.40;81.00;;;;;;5943837;23;45416;-72
2022/11/03 03:47:02;;;;;;;2.33;0.60;;;20.50;81.20;;;;;;5926258;23;45504;-73
2022/11/03 03:49:43;;;;;;;1.50;0.82;;;20.40;81.10;;;;;;5920273;23;46441;-73
2022/11/03 03:52:23;;;;;;;2.28;0.77;;;20.40;81.00;;;;;;5952654;23;45600;-73
2022/11/03 03:55:02;;;;;;;4.80;0.77;;;20.40;82.10;;;;;;5936990;23;45319;-72
2022/11/03 03:57:44;;;;;;;1.80;0.60;;;20.50;80.90;;;;;;5991587;23;45420;-73
2022/11/03 04:00:15;;;;;;;2.67;0.70;;;20.50;81.00;;;;;;5938127;23;46676;-73
2022/11/03 04:02:52;;;;;;;1.05;0.63;;;20.40;80.90;;;;;;5940476;23;45346;-73
2022/11/03 04:05:19;;;;;;;2.60;0.98;;;20.40;81.00;;;;;;5970974;23;45364;-73
2022/11/03 04:08:02;;;;;;;1.52;0.60;;;20.40;80.90;;;;;;5945182;23;45548;-73
2022/11/03 04:10:38;;;;;;;2.85;1.02;;;20.40;81.00;;;;;;5940188;23;47628;-73
2022/11/03 04:22:33;;;;;;;3.47;0.70;;;20.40;81.20;;;;;;5936763;23;45691;-73
2022/11/03 04:25:17;;;;;;;2.58;0.85;;;20.40;80.90;;;;;;5961862;23;45299;-73
2022/11/03 04:27:54;;;;;;;2.47;0.65;;;20.40;80.90;;;;;;5951198;23;45374;-73
2022/11/03 04:30:34;;;;;;;1.48;0.57;;;20.40;80.90;;;;;;5934813;23;45342;-73
2022/11/03 04:33:26;;;;;;;1.73;0.60;;;20.40;80.80;;;;;;5964680;23;46439;-73
2022/11/03 04:36:13;;;;;;;2.58;0.93;;;20.40;80.80;;;;;;5949999;23;45400;-73
2022/11/03 04:38:49;;;;;;;1.92;0.50;;;20.40;80.80;;;;;;5922207;23;45511;-73
2022/11/03 04:41:41;;;;;;;2.17;1.10;;;20.40;80.90;;;;;;5936883;23;45562;-73
2022/11/03 04:44:19;;;;;;;2.20;0.63;;;20.40;80.80;;;;;;5941277;23;46586;-73
2022/11/03 04:47:12;;;;;;;1.95;0.65;;;20.40;80.80;;;;;;5968443;23;45401;-73
2022/11/03 04:49:54;;;;;;;1.38;0.60;;;20.40;80.90;;;;;;5916506;23;45410;-73
2022/11/03 04:52:31;;;;;;;0.95;0.43;;;20.40;80.80;;;;;;5934721;23;45340;-73
2022/11/03 04:55:08;;;;;;;1.52;0.70;;;20.40;80.90;;;;;;5937976;23;47493;-73
2022/11/03 04:57:39;;;;;;;2.35;0.80;;;20.40;80.70;;;;;;5953218;23;45435;-73
2022/11/03 05:00:35;;;;;;;3.85;0.70;;;20.40;80.80;;;;;;5936069;23;45218;-73
2022/11/03 05:03:02;;;;;;;1.85;0.68;;;20.40;80.90;;;;;;5913471;23;45435;-73
2022/11/03 05:05:39;;;;;;;1.63;0.80;;;20.40;80.80;;;;;;5935623;23;47496;-73
2022/11/03 05:08:09;;;;;;;2.08;0.73;;;20.40;80.90;;;;;;5947000;23;45437;-73
2022/11/03 05:10:36;;;;;;;2.38;0.75;;;20.40;80.80;;;;;;5924518;23;45242;-73
2022/11/03 05:13:25;;;;;;;2.55;0.90;;;20.40;81.10;;;;;;5929807;23;45517;-73
2022/11/03 05:16:09;;;;;;;2.45;0.93;;;20.40;80.80;;;;;;5941706;23;46702;-73
2022/11/03 05:21:54;;;;;;;2.35;0.70;;;20.40;80.80;;;;;;5931898;23;45335;-73
2022/11/03 05:24:32;;;;;;;2.38;0.80;;;20.40;80.70;;;;;;5922583;23;45353;-72
2022/11/03 05:27:26;;;;;;;1.80;0.63;;;20.40;80.80;;;;;;5967288;23;47677;-73
2022/11/03 05:30:15;;;;;;;1.27;0.70;;;20.40;80.70;;;;;;5941027;23;45254;-73
2022/11/03 05:32:52;;;;;;;1.10;0.60;;;20.40;80.80;;;;;;5929960;23;45329;-73
2022/11/03 05:35:37;;;;;;;1.88;0.75;;;20.40;80.70;;;;;;5928094;23;45369;-73
2022/11/03 05:38:26;;;;;;;1.17;0.70;;;20.40;80.70;;;;;;5920038;23;46363;-73
2022/11/03 05:41:07;;;;;;;2.63;0.75;;;20.40;80.70;;;;;;5941941;23;45398;-73
2022/11/03 05:44:07;;;;;;;1.48;0.70;;;20.40;80.70;;;;;;5931864;23;45388;-73
2022/11/03 05:46:52;;;;;;;1.73;0.60;;;20.40;80.60;;;;;;5930782;23;45438;-73
2022/11/03 05:52:15;;;;;;;1.88;0.75;;;20.40;80.70;;;;;;5966796;23;45287;-72
2022/11/03 05:55:36;;;;;;;3.33;0.82;;;20.40;80.10;;;;;;5936663;23;45328;-73
2022/11/03 05:58:26;;;;;;;1.10;0.60;;;20.40;80.40;;;;;;5914960;23;45586;-73
2022/11/03 06:01:36;;;;;;;3.08;0.82;;;20.40;80.40;;;;;;5928256;23;47576;-73
2022/11/03 06:04:30;;;;;;;2.05;0.60;;;20.40;80.60;;;;;;5958562;23;45150;-73
2022/11/03 06:07:18;;;;;;;3.08;0.63;;;20.40;80.50;;;;;;5926951;23;45186;-73
2022/11/03 06:09:45;;;;;;;3.20;0.80;;;20.40;80.70;;;;;;5935323;23;45550;-73
2022/11/03 06:12:24;;;;;;;1.08;0.63;;;20.40;80.80;;;;;;5943242;23;47318;-72
2022/11/03 06:15:09;;;;;;;2.33;0.70;;;20.40;80.70;;;;;;5946303;23;45261;-72
2022/11/03 06:17:37;;;;;;;2.08;0.52;;;20.40;81.00;;;;;;5933430;23;45365;-72
2022/11/03 06:23:19;;;;;;;2.08;0.70;;;20.40;81.00;;;;;;5910551;23;45886;-72
2022/11/03 06:25:46;;;;;;;2.33;0.60;;;20.40;80.80;;;;;;5929032;23;45521;-72
2022/11/03 06:28:35;;;;;;;1.05;0.60;;;20.40;80.80;;;;;;5917219;23;45341;-72
2022/11/03 06:31:04;;;;;;;0.90;0.45;;;20.40;80.80;;;;;;5929768;23;45224;-72
2022/11/03 06:33:46;;;;;;;1.50;0.75;;;20.40;80.80;;;;;;5914067;23;46668;-72
2022/11/03 06:53:33;;;;;;;1.23;0.70;;;20.40;78.70;;;;;;5925727;23;45405;-73
2022/11/03 06:56:15;;;;;;;2.70;0.80;;;20.30;78.50;;;;;;5948395;23;45627;-75
2022/11/03 06:58:42;;;;;;;2.17;0.90;;;20.40;78.70;;;;;;5952023;23;45392;-73
2022/11/03 07:01:28;;;;;;;2.40;0.82;;;20.30;78.90;;;;;;5914112;23;47176;-73
2022/11/03 07:04:03;;;;;;;1.88;0.73;;;20.30;78.80;;;;;;5934398;23;45368;-73
2022/11/03 07:06:36;;;;;;;2.20;0.80;;;20.30;78.60;;;;;;5955269;23;45336;-73
2022/11/03 07:09:22;;;;;;;1.98;0.80;;;20.30;78.80;;;;;;5953896;23;45562;-72
2022/11/03 07:12:01;;;;;;;3.60;1.20;;;20.30;78.50;;;;;;5924725;23;46623;-72
2022/11/03 07:14:39;;;;;;;1.60;0.85;;;20.30;78.50;;;;;;5912404;23;45357;-72
2022/11/03 07:17:22;;;;;;;3.30;0.90;;;20.30;78.90;;;;;;5919773;23;45527;-72
2022/11/03 07:19:51;;;;;;;3.53;1.00;;;20.30;78.90;;;;;;5956424;23;45448;-73
2022/11/03 07:22:37;;;;;;;3.60;1.08;;;20.30;79.10;;;;;;5923051;23;46363;-73
2022/11/03 07:28:10;;;;;;;1.85;0.82;;;20.40;79.20;;;;;;5933011;23;45206;-72
2022/11/03 07:30:38;;;;;;;1.90;0.80;;;20.40;79.10;;;;;;5959543;23;45488;-73
2022/11/03 07:46:57;;;;;;;3.63;0.87;;;20.40;79.50;;;;;;6182800;22;1236860;-73
2022/11/03 07:49:36;;;;;;;1.55;0.80;;;20.40;79.90;;;;;;6084837;22;45376;-73
2022/11/03 07:52:16;;;;;;;1.92;0.77;;;20.40;80.10;;;;;;6112762;22;45500;-73
2022/11/03 07:54:43;;;;;;;2.65;1.00;;;20.40;80.10;;;;;;6095680;22;45371;-73
2022/11/03 07:57:29;;;;;;;2.30;0.77;;;20.40;80.10;;;;;;6063835;22;46583;-73
2022/11/03 08:00:01;;;;;;;3.85;0.98;;;20.40;80.10;;;;;;6084251;22;45219;-73
2022/11/03 08:05:43;;;;;;;1.30;0.95;;;20.50;80.20;;;;;;6144120;22;45320;-72
2022/11/03 08:08:10;;;;;;;1.65;0.90;;;20.40;80.20;;;;;;6312083;22;46846;-72
2022/11/03 08:10:37;;;;;;;2.40;0.95;;;20.40;80.30;;;;;;6313090;22;45288;-72
2022/11/03 08:13:04;;;;;;;2.00;0.82;;;20.40;80.40;;;;;;6313363;22;45356;-72
2022/11/03 08:15:40;;;;;;;2.50;0.75;;;20.50;80.40;;;;;;6315755;22;45167;-71
2022/11/03 08:18:08;;;;;;;4.38;0.70;;;20.50;80.40;;;;;;6314379;22;46245;-72
2022/11/03 08:20:35;;;;;;;2.63;0.70;;;20.40;80.40;;;;;;6312229;22;45346;-72
2022/11/03 08:23:02;;;;;;;2.75;1.00;;;20.40;80.50;;;;;;6313176;22;45429;-72
2022/11/03 08:25:29;;;;;;;2.38;0.73;;;20.40;80.50;;;;;;6313516;22;45453;-73
2022/11/03 08:27:56;;;;;;;1.85;0.82;;;20.40;80.50;;;;;;6312500;22;46463;-73
2022/11/03 08:30:23;;;;;;;2.33;0.68;;;20.40;80.60;;;;;;6313530;22;45262;-72
2022/11/03 08:32:49;;;;;;;2.92;0.80;;;20.40;80.60;;;;;;6312059;22;45470;-72
2022/11/03 08:35:18;;;;;;;3.80;0.90;;;20.40;80.50;;;;;;6313103;22;45480;-72
2022/11/03 08:37:44;;;;;;;1.33;0.70;;;20.40;80.70;;;;;;6312120;22;45279;-72
2022/11/03 08:40:12;;;;;;;1.20;0.77;;;20.40;80.70;;;;;;6312365;22;45303;-71
2022/11/03 08:42:39;;;;;;;1.45;0.70;;;20.40;80.40;;;;;;6312737;22;45260;-71
2022/11/03 08:45:07;;;;;;;1.38;0.70;;;20.40;80.70;;;;;;6312854;22;45338;-72
2022/11/03 08:47:33;;;;;;;2.88;0.70;;;20.40;80.50;;;;;;6306235;22;47516;-71
2022/11/03 08:50:00;;;;;;;1.75;0.90;;;20.40;80.60;;;;;;6305934;22;45262;-71
2022/11/03 08:52:28;;;;;;;1.75;0.80;;;20.40;80.70;;;;;;6304961;22;45161;-72
2022/11/03 08:54:55;;;;;;;1.75;0.70;;;20.40;80.70;;;;;;6306150;22;45493;-72
2022/11/03 08:57:22;;;;;;;1.98;0.73;;;20.40;80.80;;;;;;6305268;22;46275;-71
2022/11/03 08:59:51;;;;;;;1.90;0.80;;;20.40;80.70;;;;;;6305918;22;45243;-72
2022/11/03 09:02:17;;;;;;;2.35;0.88;;;20.40;81.00;;;;;;6304991;22;45244;-71
2022/11/03 09:04:45;;;;;;;1.73;0.68;;;20.40;81.00;;;;;;6303874;22;45418;-72
2022/11/03 09:07:11;;;;;;;3.83;1.10;;;20.40;81.00;;;;;;6305070;22;46539;-72
2022/11/03 09:09:39;;;;;;;3.90;1.15;;;20.40;81.00;;;;;;6305179;22;45394;-71
2022/11/03 09:12:06;;;;;;;1.45;0.90;;;20.40;81.00;;;;;;6306206;22;45193;-71
2022/11/03 09:14:33;;;;;;;1.58;0.70;;;20.50;81.00;;;;;;6305804;22;45416;-72
2022/11/03 09:17:00;;;;;;;2.22;0.90;;;20.40;81.00;;;;;;6304759;22;48168;-72
2022/11/03 09:19:27;;;;;;;2.60;0.70;;;20.40;81.00;;;;;;6306059;22;45299;-72
2022/11/03 09:21:53;;;;;;;0.65;0.50;;;20.40;81.00;;;;;;6304962;22;45426;-72
2022/11/03 09:24:20;;;;;;;3.20;0.98;;;20.40;82.10;;;;;;6302968;22;45617;-72
2022/11/03 09:26:48;;;;;;;1.35;0.60;;;20.40;81.00;;;;;;6305324;22;46092;-72
2022/11/03 09:29:15;;;;;;;1.02;0.50;;;20.40;81.00;;;;;;6304917;22;45316;-72
2022/11/03 09:31:42;;;;;;;2.63;0.93;;;20.40;81.00;;;;;;6305944;22;45333;-72
2022/11/03 09:34:09;;;;;;;1.23;0.80;;;20.40;81.10;;;;;;6300367;22;45420;-72
2022/11/03 09:36:35;;;;;;;2.20;0.70;;;20.40;81.00;;;;;;6305397;22;48704;-72
2022/11/03 09:39:03;;;;;;;1.42;0.60;;;20.40;81.10;;;;;;6305763;22;45378;-71
2022/11/03 09:41:30;;;;;;;1.48;0.68;;;20.50;81.20;;;;;;6305542;22;45335;-72
2022/11/03 09:43:59;;;;;;;1.60;0.55;;;20.40;81.10;;;;;;6305798;22;45222;-72
2022/11/03 09:46:28;;;;;;;1.38;0.75;;;20.50;81.10;;;;;;6305048;22;47015;-73
2022/11/03 09:48:56;;;;;;;2.65;0.90;;;20.50;81.10;;;;;;6304781;22;45372;-72
2022/11/03 09:51:25;;;;;;;1.88;0.60;;;20.50;81.20;;;;;;6305872;22;45408;-72
2022/11/03 09:53:53;;;;;;;2.42;0.70;;;20.50;81.20;;;;;;6305963;22;45408;-72
2022/11/03 09:56:22;;;;;;;2.85;1.00;;;20.50;81.20;;;;;;6306739;22;48333;-72
2022/11/03 09:58:49;;;;;;;1.23;0.90;;;20.50;81.20;;;;;;6306975;22;45329;-72
2022/11/03 10:01:18;;;;;;;2.75;0.70;;;20.50;81.00;;;;;;6307264;22;45256;-72
2022/11/03 10:03:44;;;;;;;1.70;0.90;;;20.50;81.20;;;;;;6305167;22;45500;-71
2022/11/03 10:06:11;;;;;;;2.20;0.70;;;20.50;81.20;;;;;;6304265;22;47277;-71
2022/11/03 10:08:40;;;;;;;1.17;0.70;;;20.40;80.90;;;;;;6305442;22;45584;-72
2022/11/03 10:11:09;;;;;;;1.30;0.80;;;20.50;81.10;;;;;;6305640;22;45389;-71
2022/11/03 10:13:39;;;;;;;2.40;0.60;;;20.50;81.00;;;;;;6305396;22;45532;-71
2022/11/03 10:16:08;;;;;;;1.73;0.90;;;20.50;81.10;;;;;;6305425;22;47948;-71
2022/11/03 10:18:37;;;;;;;1.85;0.90;;;20.50;81.00;;;;;;6304960;22;45323;-71
2022/11/03 10:21:06;;;;;;;1.73;0.60;;;20.40;80.90;;;;;;6303204;22;45337;-71
2022/11/03 10:23:33;;;;;;;2.17;0.82;;;20.50;81.00;;;;;;6303252;22;45415;-72
2022/11/03 10:26:09;;;;;;;1.63;1.00;;;20.50;81.00;;;;;;6303974;22;47225;-72
2022/11/03 10:28:37;;;;;;;1.40;0.75;;;20.50;81.00;;;;;;6306018;22;45298;-72
2022/11/03 10:31:07;;;;;;;1.77;0.80;;;20.40;81.00;;;;;;6305215;22;45298;-72
2022/11/03 10:33:37;;;;;;;2.05;0.80;;;20.50;81.10;;;;;;6305499;22;45387;-72
2022/11/03 10:36:05;;;;;;;1.25;0.60;;;20.40;81.00;;;;;;6305099;22;45616;-72
2022/11/03 10:38:33;;;;;;;2.45;0.80;;;20.50;81.00;;;;;;6305250;22;45372;-72
2022/11/03 10:41:19;;;;;;;1.05;0.70;;;20.50;81.10;;;;;;6305790;22;45240;-72
2022/11/03 10:44:00;;;;;;;1.15;0.60;;;20.50;81.00;;;;;;6304588;22;45385;-72
2022/11/03 10:46:28;;;;;;;1.58;0.70;;;20.50;81.00;;;;;;6305779;22;45457;-73
2022/11/03 10:49:04;;;;;;;1.45;0.70;;;20.50;81.00;;;;;;6304967;22;45366;-72
2022/11/03 10:51:32;;;;;;;2.53;0.70;;;20.50;80.80;;;;;;6306115;22;45248;-72
2022/11/03 10:53:59;;;;;;;1.85;0.85;;;20.50;81.00;;;;;;6304754;22;45294;-73
2022/11/03 10:56:26;;;;;;;1.98;0.70;;;20.50;80.90;;;;;;6305387;22;46371;-72
2022/11/03 10:58:54;;;;;;;1.92;0.88;;;20.50;80.80;;;;;;6305836;22;45372;-72
2022/11/03 11:01:21;;;;;;;2.20;0.85;;;20.40;80.70;;;;;;6305166;22;45360;-72
2022/11/03 11:03:48;;;;;;;1.83;0.60;;;20.50;80.70;;;;;;6305570;22;45537;-72
2022/11/03 11:06:24;;;;;;;0.93;0.50;;;20.50;80.70;;;;;;6304070;22;45310;-72
2022/11/03 11:08:56;;;;;;;1.40;0.57;;;20.50;80.70;;;;;;6305239;22;45316;-72
2022/11/03 11:11:23;;;;;;;2.42;0.88;;;20.50;80.80;;;;;;6306173;22;45229;-72
2022/11/03 11:14:20;;;;;;;0.90;0.73;;;20.50;80.80;;;;;;6290168;22;45389;-73
2022/11/03 11:16:49;;;;;;;1.50;0.73;;;20.50;80.70;;;;;;6274543;22;47352;-72
2022/11/03 11:19:16;;;;;;;0.90;0.55;;;20.50;80.70;;;;;;6273729;22;45231;-72
2022/11/03 11:22:14;;;;;;;1.15;0.77;;;20.50;80.80;;;;;;6274649;22;45291;-72
2022/11/03 11:25:00;;;;;;;1.85;0.52;;;20.50;80.60;;;;;;6273463;22;45508;-72
2022/11/03 11:28:06;;;;;;;1.25;0.68;;;20.50;80.60;;;;;;6273683;22;46378;-72
2022/11/03 11:31:37;;;;;;;1.00;0.60;;;20.50;80.70;;;;;;6274202;22;45236;-72
2022/11/03 11:34:40;;;;;;;0.93;0.50;;;20.50;80.70;;;;;;6149762;23;45292;-71
2022/11/03 11:37:37;;;;;;;0.77;0.57;;;20.50;80.70;;;;;;6149439;23;45325;-72
2022/11/03 11:40:12;;;;;;;4.20;0.70;;;20.50;80.90;;;;;;6192744;22;45529;-71
2022/11/03 11:43:12;;;;;;;1.02;0.57;;;20.50;81.20;;;;;;6274174;22;45259;-71
2022/11/03 11:46:16;;;;;;;1.05;0.60;;;20.50;81.10;;;;;;6258658;22;45311;-72
2022/11/03 11:48:43;;;;;;;1.10;0.40;;;20.50;81.00;;;;;;6274283;22;45477;-71
2022/11/03 11:51:11;;;;;;;1.27;0.70;;;20.50;80.80;;;;;;6273034;22;46575;-71
2022/11/03 11:53:41;;;;;;;1.40;0.70;;;20.50;80.80;;;;;;6273329;22;45351;-71
2022/11/03 11:56:11;;;;;;;2.60;0.68;;;20.50;80.90;;;;;;6276443;22;45197;-71
2022/11/03 11:58:42;;;;;;;0.70;0.47;;;20.50;80.90;;;;;;6276049;22;45299;-71
2022/11/03 12:01:22;;;;;;;1.75;0.70;;;20.40;80.90;;;;;;6273708;22;47132;-71
2022/11/03 12:03:50;;;;;;;2.22;0.70;;;20.40;80.70;;;;;;6273175;22;45228;-71
2022/11/03 12:06:18;;;;;;;1.48;0.68;;;20.40;80.80;;;;;;6273616;22;45517;-71
2022/11/03 12:08:46;;;;;;;1.52;0.55;;;20.40;80.80;;;;;;6273129;22;45345;-71
2022/11/03 12:11:13;;;;;;;1.17;0.50;;;20.40;80.70;;;;;;6274047;22;47372;-72
2022/11/03 12:13:50;;;;;;;0.95;0.57;;;20.40;81.00;;;;;;6273000;22;45421;-72
2022/11/03 12:16:33;;;;;;;1.45;0.55;;;20.40;80.80;;;;;;6273793;22;45395;-72
2022/11/03 12:19:39;;;;;;;0.88;0.40;;;20.50;80.50;;;;;;6274210;22;45480;-72
2022/11/03 12:22:08;;;;;;;1.20;0.80;;;20.50;79.90;;;;;;6274212;22;47059;-72
2022/11/03 12:24:45;;;;;;;0.85;0.70;;;20.50;79.70;;;;;;6275051;22;45279;-72
2022/11/03 12:27:21;;;;;;;1.77;0.80;;;20.50;80.00;;;;;;6276310;22;45508;-71
2022/11/03 12:29:47;;;;;;;1.27;0.70;;;20.50;80.00;;;;;;6274293;22;45308;-71
2022/11/03 12:32:14;;;;;;;2.03;0.77;;;20.50;80.00;;;;;;6273155;22;48026;-71
2022/11/03 12:34:41;;;;;;;1.95;0.75;;;20.50;80.00;;;;;;6274316;22;45279;-72
2022/11/03 12:37:08;;;;;;;1.33;0.77;;;20.50;80.00;;;;;;6275058;22;45383;-72
2022/11/03 12:39:37;;;;;;;1.95;0.80;;;20.60;80.10;;;;;;6273711;22;45211;-71
2022/11/03 12:42:03;;;;;;;1.58;0.85;;;20.50;80.20;;;;;;6274357;22;47122;-72
2022/11/03 12:44:30;;;;;;;1.25;0.65;;;20.50;80.10;;;;;;6274522;22;45212;-72
2022/11/03 12:46:57;;;;;;;1.90;0.70;;;20.50;80.00;;;;;;6274435;22;45420;-72
2022/11/03 12:49:24;;;;;;;1.27;0.60;;;20.50;80.10;;;;;;6275150;22;45231;-72
2022/11/03 12:51:50;;;;;;;2.40;0.82;;;20.50;80.00;;;;;;6271040;22;47914;-72
2022/11/03 12:54:18;;;;;;;1.67;0.75;;;20.50;80.00;;;;;;6271252;22;45211;-72
2022/11/03 12:56:46;;;;;;;0.90;0.45;;;20.50;80.10;;;;;;6273210;22;45266;-72
2022/11/03 12:59:12;;;;;;;0.68;0.52;;;20.50;80.20;;;;;;6272267;22;45215;-72
2022/11/03 13:01:39;;;;;;;0.95;0.70;;;20.50;80.40;;;;;;6274157;22;47622;-71
2022/11/03 13:04:07;;;;;;;1.23;0.60;;;20.50;80.40;;;;;;6273047;22;45353;-71
2022/11/03 13:06:34;;;;;;;1.60;0.75;;;20.50;80.60;;;;;;6274709;22;45284;-72
2022/11/03 13:09:01;;;;;;;0.68;0.30;;;20.50;80.70;;;;;;6274541;22;45283;-71
2022/11/03 13:14:13;;;;;;;1.38;0.70;;;20.50;80.80;;;;;;6273831;22;45414;-72
2022/11/03 13:16:40;;;;;;;2.30;0.57;;;20.50;80.80;;;;;;6273517;22;45359;-72
2022/11/03 13:19:09;;;;;;;2.30;0.88;;;20.50;80.80;;;;;;6273550;22;45307;-72
2022/11/03 13:21:36;;;;;;;1.35;0.68;;;20.50;81.90;;;;;;6272548;22;48166;-72
2022/11/03 13:24:03;;;;;;;1.02;0.60;;;20.50;80.80;;;;;;6273089;22;45357;-72
2022/11/03 13:26:30;;;;;;;1.83;0.85;;;20.50;80.80;;;;;;6275144;22;45260;-72
2022/11/03 13:28:57;;;;;;;1.50;0.80;;;20.50;80.80;;;;;;6274177;22;45299;-72
2022/11/03 13:31:25;;;;;;;2.33;0.68;;;20.50;80.70;;;;;;6274548;22;47259;-72
2022/11/03 13:33:52;;;;;;;1.98;0.73;;;20.50;80.70;;;;;;6273665;22;45298;-73
2022/11/03 13:36:18;;;;;;;3.92;0.80;;;20.50;80.60;;;;;;6274660;22;45480;-72
2022/11/03 13:38:45;;;;;;;1.80;0.77;;;20.50;80.60;;;;;;6275240;22;45147;-72
2022/11/03 13:41:12;;;;;;;1.90;0.90;;;20.50;80.70;;;;;;6274146;22;48148;-72
2022/11/03 13:43:39;;;;;;;1.85;0.68;;;20.50;80.70;;;;;;6274152;22;45368;-72
2022/11/03 13:46:06;;;;;;;2.63;0.73;;;20.50;80.60;;;;;;6274700;22;45439;-73
2022/11/03 13:48:34;;;;;;;3.47;0.57;;;20.50;80.80;;;;;;6273088;22;45263;-72
2022/11/03 13:51:00;;;;;;;0.57;0.47;;;20.50;80.70;;;;;;6273261;22;46253;-71
2022/11/03 13:53:27;;;;;;;0.88;0.50;;;20.50;80.50;;;;;;6272775;22;45310;-71
2022/11/03 13:55:56;;;;;;;1.67;0.73;;;20.50;80.60;;;;;;6274067;22;45212;-72
2022/11/03 13:58:23;;;;;;;0.52;0.50;;;20.50;80.70;;;;;;6273146;22;45457;-72
2022/11/03 14:00:50;;;;;;;1.40;0.63;;;20.50;80.70;;;;;;6273688;22;45322;-72
2022/11/03 14:03:17;;;;;;;1.23;0.57;;;20.50;80.70;;;;;;6273547;22;45287;-72
2022/11/03 14:05:45;;;;;;;1.02;0.50;;;20.50;80.70;;;;;;6273638;22;45537;-73
2022/11/03 14:08:12;;;;;;;2.33;0.70;;;20.50;80.80;;;;;;6274600;22;45394;-72
2022/11/03 14:10:39;;;;;;;1.92;0.98;;;20.50;81.10;;;;;;6274458;22;45199;-71
2022/11/03 14:13:05;;;;;;;1.58;0.70;;;20.50;81.00;;;;;;6272722;22;45214;-72
2022/11/03 14:15:33;;;;;;;1.13;0.70;;;20.50;81.00;;;;;;6274912;22;45344;-73
2022/11/03 14:18:00;;;;;;;1.65;0.60;;;20.50;81.00;;;;;;6272745;22;45414;-72
2022/11/03 14:20:27;;;;;;;1.38;0.60;;;20.50;80.80;;;;;;6273716;22;47706;-72
2022/11/03 14:22:55;;;;;;;0.73;0.47;;;20.50;81.00;;;;;;6271807;22;45705;-71
2022/11/03 14:25:22;;;;;;;1.02;0.63;;;20.50;80.70;;;;;;6272963;22;45231;-72
2022/11/03 14:27:49;;;;;;;1.45;0.60;;;20.50;80.50;;;;;;6274442;22;45254;-72
2022/11/03 14:30:16;;;;;;;1.50;0.70;;;20.50;80.80;;;;;;6273626;22;47029;-72
2022/11/03 14:32:43;;;;;;;1.50;0.73;;;20.50;80.80;;;;;;6274544;22;45288;-71
2022/11/03 14:35:10;;;;;;;1.13;0.60;;;20.50;80.70;;;;;;6274001;22;45323;-72
2022/11/03 14:37:37;;;;;;;2.35;0.52;;;20.50;80.70;;;;;;6273835;22;45312;-72
2022/11/03 14:40:07;;;;;;;3.75;1.33;;;20.50;80.70;;;;;;6274603;22;46418;-72
2022/11/03 14:42:52;;;;;;;1.35;0.70;;;20.50;80.90;;;;;;6273247;22;45351;-72
2022/11/03 14:45:19;;;;;;;0.88;0.50;;;20.50;80.70;;;;;;6273592;22;45446;-72
2022/11/03 14:47:46;;;;;;;1.92;0.70;;;20.50;80.90;;;;;;6274012;22;45497;-72
2022/11/03 14:50:13;;;;;;;2.20;0.60;;;20.50;80.80;;;;;;6273645;22;46343;-72